sensor_id;sensor_type;location;lat;lon;timestamp;temperature;humidity
6841;DHT22;3458;53.678;14.080;2023-01-19T00:01:35;-0.90;99.90
6841;DHT22;3458;53.678;14.080;2023-01-19T00:04:00;-0.90;99.90
6841;DHT22;3458;53.678;14.080;2023-01-19T00:06:26;-0.90;99.90
6841;DHT22;3458;53.678;14.080;2023-01-19T00:08:51;-1.00;99.90
6841;DHT22;3458;53.678;14.080;2023-01-19T00:11:17;-1.00;99.90
6841;DHT22;3458;53.678;14.080;2023-01-19T00:13:43;-1.00;99.90
6841;DHT22;3458;53.678;14.080;2023-01-19T00:16:17;-1.00;99.90
6841;DHT22;3458;53.678;14.080;2023-01-19T00:18:46;-1.00;99.90
6841;DHT22;3458;53.678;14.080;2023-01-19T00:21:12;-1.00;99.90
6841;DHT22;3458;53.678;14.080;2023-01-19T00:23:41;-1.00;99.90
6841;DHT22;3458;53.678;14.080;2023-01-19T00:26:07;-1.00;99.90
6841;DHT22;3458;53.678;14.080;2023-01-19T00:28:33;-1.00;99.90
6841;DHT22;3458;53.678;14.080;2023-01-19T00:30:58;-1.00;99.90
6841;DHT22;3458;53.678;14.080;2023-01-19T00:33:24;-1.10;99.90
6841;DHT22;3458;53.678;14.080;2023-01-19T00:35:53;-1.10;99.90
6841;DHT22;3458;53.678;14.080;2023-01-19T00:38:21;-1.10;99.90
6841;DHT22;3458;53.678;14.080;2023-01-19T00:40:47;-1.10;99.90
6841;DHT22;3458;53.678;14.080;2023-01-19T00:43:13;-1.10;99.90
6841;DHT22;3458;53.678;14.080;2023-01-19T00:45:38;-1.10;99.90
6841;DHT22;3458;53.678;14.080;2023-01-19T00:48:04;-1.20;99.90
6841;DHT22;3458;53.678;14.080;2023-01-19T00:50:31;-1.20;99.90
6841;DHT22;3458;53.678;14.080;2023-01-19T00:52:57;-1.20;99.90
6841;DHT22;3458;53.678;14.080;2023-01-19T00:55:26;-1.20;99.90
6841;DHT22;3458;53.678;14.080;2023-01-19T00:57:53;-1.20;99.90
6841;DHT22;3458;53.678;14.080;2023-01-19T01:00:19;-1.10;99.90
6841;DHT22;3458;53.678;14.080;2023-01-19T01:02:45;-1.10;99.90
6841;DHT22;3458;53.678;14.080;2023-01-19T01:05:11;-1.10;99.90
6841;DHT22;3458;53.678;14.080;2023-01-19T01:07:37;-1.10;99.90
6841;DHT22;3458;53.678;14.080;2023-01-19T01:10:09;-1.10;99.90
6841;DHT22;3458;53.678;14.080;2023-01-19T01:12:35;-1.20;99.90
6841;DHT22;3458;53.678;14.080;2023-01-19T01:15:01;-1.20;99.90
6841;DHT22;3458;53.678;14.080;2023-01-19T01:17:27;-1.20;99.90
6841;DHT22;3458;53.678;14.080;2023-01-19T01:19:52;-1.20;99.90
6841;DHT22;3458;53.678;14.080;2023-01-19T01:22:18;-1.20;99.90
6841;DHT22;3458;53.678;14.080;2023-01-19T01:24:43;-1.20;99.90
6841;DHT22;3458;53.678;14.080;2023-01-19T01:27:09;-1.20;99.90
6841;DHT22;3458;53.678;14.080;2023-01-19T01:29:34;-1.20;99.90
6841;DHT22;3458;53.678;14.080;2023-01-19T01:32:01;-1.20;99.90
6841;DHT22;3458;53.678;14.080;2023-01-19T01:34:26;-1.20;99.90
6841;DHT22;3458;53.678;14.080;2023-01-19T01:36:52;-1.20;99.90
6841;DHT22;3458;53.678;14.080;2023-01-19T01:39:19;-1.30;99.90
6841;DHT22;3458;53.678;14.080;2023-01-19T01:41:44;-1.30;99.90
6841;DHT22;3458;53.678;14.080;2023-01-19T01:47:37;-1.30;99.90
6841;DHT22;3458;53.678;14.080;2023-01-19T01:50:20;-1.30;99.90
6841;DHT22;3458;53.678;14.080;2023-01-19T01:52:50;-1.30;99.90
6841;DHT22;3458;53.678;14.080;2023-01-19T01:55:17;-1.30;99.90
6841;DHT22;3458;53.678;14.080;2023-01-19T01:57:49;-1.40;99.90
6841;DHT22;3458;53.678;14.080;2023-01-19T02:00:16;-1.40;99.90
6841;DHT22;3458;53.678;14.080;2023-01-19T02:02:42;-1.40;99.90
6841;DHT22;3458;53.678;14.080;2023-01-19T02:05:27;-1.50;99.90
6841;DHT22;3458;53.678;14.080;2023-01-19T02:08:08;-1.50;99.90
6841;DHT22;3458;53.678;14.080;2023-01-19T02:10:53;-1.40;99.90
6841;DHT22;3458;53.678;14.080;2023-01-19T02:13:40;-1.50;99.90
6841;DHT22;3458;53.678;14.080;2023-01-19T02:16:09;-1.50;99.90
6841;DHT22;3458;53.678;14.080;2023-01-19T02:18:35;-1.60;99.90
6841;DHT22;3458;53.678;14.080;2023-01-19T02:21:14;-1.60;99.90
6841;DHT22;3458;53.678;14.080;2023-01-19T02:23:54;-1.50;99.90
6841;DHT22;3458;53.678;14.080;2023-01-19T02:26:23;-1.60;99.90
6841;DHT22;3458;53.678;14.080;2023-01-19T02:29:06;-1.60;99.90
6841;DHT22;3458;53.678;14.080;2023-01-19T02:31:33;-1.60;99.90
6841;DHT22;3458;53.678;14.080;2023-01-19T02:34:00;-1.70;99.90
6841;DHT22;3458;53.678;14.080;2023-01-19T02:36:33;-1.70;99.90
6841;DHT22;3458;53.678;14.080;2023-01-19T02:39:00;-1.70;99.90
6841;DHT22;3458;53.678;14.080;2023-01-19T02:41:31;-1.70;99.90
6841;DHT22;3458;53.678;14.080;2023-01-19T02:43:59;-1.70;99.90
6841;DHT22;3458;53.678;14.080;2023-01-19T02:46:25;-1.60;99.90
6841;DHT22;3458;53.678;14.080;2023-01-19T02:48:51;-1.70;99.90
6841;DHT22;3458;53.678;14.080;2023-01-19T02:51:24;-1.70;99.90
6841;DHT22;3458;53.678;14.080;2023-01-19T02:53:58;-1.60;99.90
6841;DHT22;3458;53.678;14.080;2023-01-19T02:56:49;-1.60;99.90
6841;DHT22;3458;53.678;14.080;2023-01-19T02:59:39;-1.60;99.90
6841;DHT22;3458;53.678;14.080;2023-01-19T03:02:18;-1.60;99.90
6841;DHT22;3458;53.678;14.080;2023-01-19T03:05:09;-1.70;99.90
6841;DHT22;3458;53.678;14.080;2023-01-19T03:08:00;-1.70;99.90
6841;DHT22;3458;53.678;14.080;2023-01-19T03:13:49;-1.70;99.90
6841;DHT22;3458;53.678;14.080;2023-01-19T03:16:33;-1.70;99.90
6841;DHT22;3458;53.678;14.080;2023-01-19T03:19:08;-1.70;99.90
6841;DHT22;3458;53.678;14.080;2023-01-19T03:21:37;-1.80;99.90
6841;DHT22;3458;53.678;14.080;2023-01-19T03:24:06;-1.80;99.90
6841;DHT22;3458;53.678;14.080;2023-01-19T03:26:37;-1.80;99.90
6841;DHT22;3458;53.678;14.080;2023-01-19T03:29:04;-1.80;99.90
6841;DHT22;3458;53.678;14.080;2023-01-19T03:31:32;-1.80;99.90
6841;DHT22;3458;53.678;14.080;2023-01-19T03:34:02;-1.80;99.90
6841;DHT22;3458;53.678;14.080;2023-01-19T03:36:34;-1.80;99.90
6841;DHT22;3458;53.678;14.080;2023-01-19T03:39:01;-1.90;99.90
6841;DHT22;3458;53.678;14.080;2023-01-19T03:41:29;-1.90;99.90
6841;DHT22;3458;53.678;14.080;2023-01-19T03:43:57;-1.90;99.90
6841;DHT22;3458;53.678;14.080;2023-01-19T03:46:23;-1.90;99.90
6841;DHT22;3458;53.678;14.080;2023-01-19T03:48:50;-1.90;99.90
6841;DHT22;3458;53.678;14.080;2023-01-19T03:51:16;-1.90;99.90
6841;DHT22;3458;53.678;14.080;2023-01-19T03:53:44;-1.90;99.90
6841;DHT22;3458;53.678;14.080;2023-01-19T03:56:20;-1.90;99.90
6841;DHT22;3458;53.678;14.080;2023-01-19T03:58:46;-1.90;99.90
6841;DHT22;3458;53.678;14.080;2023-01-19T04:01:13;-1.90;99.90
6841;DHT22;3458;53.678;14.080;2023-01-19T04:03:39;-1.90;99.90
6841;DHT22;3458;53.678;14.080;2023-01-19T04:06:06;-1.90;99.90
6841;DHT22;3458;53.678;14.080;2023-01-19T04:08:32;-2.00;99.90
6841;DHT22;3458;53.678;14.080;2023-01-19T04:10:58;-2.00;99.90
6841;DHT22;3458;53.678;14.080;2023-01-19T04:13:23;-2.00;99.90
6841;DHT22;3458;53.678;14.080;2023-01-19T04:15:49;-2.00;99.90
6841;DHT22;3458;53.678;14.080;2023-01-19T04:18:14;-2.00;99.90
6841;DHT22;3458;53.678;14.080;2023-01-19T04:20:40;-2.00;99.90
6841;DHT22;3458;53.678;14.080;2023-01-19T04:23:05;-2.10;99.90
6841;DHT22;3458;53.678;14.080;2023-01-19T04:25:31;-2.10;99.90
6841;DHT22;3458;53.678;14.080;2023-01-19T04:27:57;-2.10;99.90
6841;DHT22;3458;53.678;14.080;2023-01-19T04:30:23;-2.10;99.90
6841;DHT22;3458;53.678;14.080;2023-01-19T04:32:48;-2.10;99.90
6841;DHT22;3458;53.678;14.080;2023-01-19T04:35:14;-2.00;99.90
6841;DHT22;3458;53.678;14.080;2023-01-19T04:37:41;-2.10;99.90
6841;DHT22;3458;53.678;14.080;2023-01-19T04:40:07;-2.10;99.90
6841;DHT22;3458;53.678;14.080;2023-01-19T04:42:32;-2.10;99.90
6841;DHT22;3458;53.678;14.080;2023-01-19T04:44:58;-2.10;99.90
6841;DHT22;3458;53.678;14.080;2023-01-19T04:47:24;-2.00;99.90
6841;DHT22;3458;53.678;14.080;2023-01-19T04:49:49;-2.10;99.90
6841;DHT22;3458;53.678;14.080;2023-01-19T04:52:15;-2.10;99.90
6841;DHT22;3458;53.678;14.080;2023-01-19T04:54:40;-2.10;99.90
6841;DHT22;3458;53.678;14.080;2023-01-19T04:57:06;-2.10;99.90
6841;DHT22;3458;53.678;14.080;2023-01-19T04:59:31;-2.10;99.90
6841;DHT22;3458;53.678;14.080;2023-01-19T05:01:57;-2.20;99.90
6841;DHT22;3458;53.678;14.080;2023-01-19T05:04:23;-2.20;99.90
6841;DHT22;3458;53.678;14.080;2023-01-19T05:06:49;-2.20;99.90
6841;DHT22;3458;53.678;14.080;2023-01-19T05:09:15;-2.20;99.90
6841;DHT22;3458;53.678;14.080;2023-01-19T05:11:41;-2.20;99.90
6841;DHT22;3458;53.678;14.080;2023-01-19T05:14:07;-2.30;99.90
6841;DHT22;3458;53.678;14.080;2023-01-19T05:16:32;-2.30;99.90
6841;DHT22;3458;53.678;14.080;2023-01-19T05:18:59;-2.30;99.90
6841;DHT22;3458;53.678;14.080;2023-01-19T05:21:24;-2.30;99.90
6841;DHT22;3458;53.678;14.080;2023-01-19T05:23:50;-2.40;99.90
6841;DHT22;3458;53.678;14.080;2023-01-19T05:26:15;-2.40;99.90
6841;DHT22;3458;53.678;14.080;2023-01-19T05:28:41;-2.40;99.90
6841;DHT22;3458;53.678;14.080;2023-01-19T05:31:07;-2.40;99.90
6841;DHT22;3458;53.678;14.080;2023-01-19T05:33:32;-2.40;99.90
6841;DHT22;3458;53.678;14.080;2023-01-19T05:35:58;-2.40;99.90
6841;DHT22;3458;53.678;14.080;2023-01-19T05:38:23;-2.40;99.90
6841;DHT22;3458;53.678;14.080;2023-01-19T05:40:54;-2.40;99.90
6841;DHT22;3458;53.678;14.080;2023-01-19T05:43:20;-2.40;99.90
6841;DHT22;3458;53.678;14.080;2023-01-19T05:45:45;-2.40;99.90
6841;DHT22;3458;53.678;14.080;2023-01-19T05:48:11;-2.40;99.90
6841;DHT22;3458;53.678;14.080;2023-01-19T05:50:36;-2.30;99.90
6841;DHT22;3458;53.678;14.080;2023-01-19T05:53:02;-2.30;99.90
6841;DHT22;3458;53.678;14.080;2023-01-19T05:55:28;-2.40;99.90
6841;DHT22;3458;53.678;14.080;2023-01-19T05:57:53;-2.30;99.90
6841;DHT22;3458;53.678;14.080;2023-01-19T06:00:19;-2.30;99.90
6841;DHT22;3458;53.678;14.080;2023-01-19T06:02:45;-2.30;99.90
6841;DHT22;3458;53.678;14.080;2023-01-19T06:05:13;-2.40;99.90
6841;DHT22;3458;53.678;14.080;2023-01-19T06:07:39;-2.40;99.90
6841;DHT22;3458;53.678;14.080;2023-01-19T06:10:05;-2.40;99.90
6841;DHT22;3458;53.678;14.080;2023-01-19T06:12:31;-2.40;99.90
6841;DHT22;3458;53.678;14.080;2023-01-19T06:14:57;-2.40;99.90
6841;DHT22;3458;53.678;14.080;2023-01-19T06:17:22;-2.40;99.90
6841;DHT22;3458;53.678;14.080;2023-01-19T06:19:48;-2.40;99.90
6841;DHT22;3458;53.678;14.080;2023-01-19T06:22:13;-2.40;99.90
6841;DHT22;3458;53.678;14.080;2023-01-19T06:24:39;-2.40;99.90
6841;DHT22;3458;53.678;14.080;2023-01-19T06:27:04;-2.40;99.90
6841;DHT22;3458;53.678;14.080;2023-01-19T06:29:31;-2.40;99.90
6841;DHT22;3458;53.678;14.080;2023-01-19T06:31:56;-2.40;99.90
6841;DHT22;3458;53.678;14.080;2023-01-19T06:34:22;-2.40;99.90
6841;DHT22;3458;53.678;14.080;2023-01-19T06:36:51;-2.40;99.90
6841;DHT22;3458;53.678;14.080;2023-01-19T06:39:16;-2.40;99.90
6841;DHT22;3458;53.678;14.080;2023-01-19T06:41:42;-2.30;99.90
6841;DHT22;3458;53.678;14.080;2023-01-19T06:44:07;-2.30;99.90
6841;DHT22;3458;53.678;14.080;2023-01-19T06:46:33;-2.30;99.90
6841;DHT22;3458;53.678;14.080;2023-01-19T06:49:00;-2.30;99.90
6841;DHT22;3458;53.678;14.080;2023-01-19T06:51:25;-2.20;99.90
6841;DHT22;3458;53.678;14.080;2023-01-19T06:53:51;-2.20;99.90
6841;DHT22;3458;53.678;14.080;2023-01-19T06:56:16;-2.20;99.90
6841;DHT22;3458;53.678;14.080;2023-01-19T06:58:42;-2.20;99.90
6841;DHT22;3458;53.678;14.080;2023-01-19T07:01:07;-2.30;99.90
6841;DHT22;3458;53.678;14.080;2023-01-19T07:03:34;-2.30;99.90
6841;DHT22;3458;53.678;14.080;2023-01-19T07:06:00;-2.40;99.90
6841;DHT22;3458;53.678;14.080;2023-01-19T07:08:30;-2.40;99.90
6841;DHT22;3458;53.678;14.080;2023-01-19T07:11:00;-2.40;99.90
6841;DHT22;3458;53.678;14.080;2023-01-19T07:13:26;-2.40;99.90
6841;DHT22;3458;53.678;14.080;2023-01-19T07:15:52;-2.40;99.90
6841;DHT22;3458;53.678;14.080;2023-01-19T07:18:18;-2.40;99.90
6841;DHT22;3458;53.678;14.080;2023-01-19T07:20:43;-2.40;99.90
6841;DHT22;3458;53.678;14.080;2023-01-19T07:23:11;-2.40;99.90
6841;DHT22;3458;53.678;14.080;2023-01-19T07:25:36;-2.40;99.90
6841;DHT22;3458;53.678;14.080;2023-01-19T07:28:02;-2.40;99.90
6841;DHT22;3458;53.678;14.080;2023-01-19T07:30:28;-2.40;99.90
6841;DHT22;3458;53.678;14.080;2023-01-19T07:32:55;-2.40;99.90
6841;DHT22;3458;53.678;14.080;2023-01-19T07:35:22;-2.40;99.90
6841;DHT22;3458;53.678;14.080;2023-01-19T07:37:48;-2.50;99.90
6841;DHT22;3458;53.678;14.080;2023-01-19T07:40:13;-2.50;99.90
6841;DHT22;3458;53.678;14.080;2023-01-19T07:42:39;-2.50;99.90
6841;DHT22;3458;53.678;14.080;2023-01-19T07:45:05;-2.40;99.90
6841;DHT22;3458;53.678;14.080;2023-01-19T07:47:30;-2.40;99.90
6841;DHT22;3458;53.678;14.080;2023-01-19T07:49:56;-2.40;99.90
6841;DHT22;3458;53.678;14.080;2023-01-19T07:52:21;-2.40;99.90
6841;DHT22;3458;53.678;14.080;2023-01-19T07:54:47;-2.40;99.90
6841;DHT22;3458;53.678;14.080;2023-01-19T07:57:15;-2.30;99.90
6841;DHT22;3458;53.678;14.080;2023-01-19T07:59:41;-2.30;99.90
6841;DHT22;3458;53.678;14.080;2023-01-19T08:02:08;-2.30;99.90
6841;DHT22;3458;53.678;14.080;2023-01-19T08:04:34;-2.30;99.90
6841;DHT22;3458;53.678;14.080;2023-01-19T08:07:00;-2.30;99.90
6841;DHT22;3458;53.678;14.080;2023-01-19T08:09:25;-2.30;99.90
6841;DHT22;3458;53.678;14.080;2023-01-19T08:11:51;-2.30;99.90
6841;DHT22;3458;53.678;14.080;2023-01-19T08:14:16;-2.30;99.90
6841;DHT22;3458;53.678;14.080;2023-01-19T08:16:42;-2.30;99.90
6841;DHT22;3458;53.678;14.080;2023-01-19T08:19:08;-2.30;99.90
6841;DHT22;3458;53.678;14.080;2023-01-19T08:21:33;-2.20;99.90
6841;DHT22;3458;53.678;14.080;2023-01-19T08:24:00;-2.20;99.90
6841;DHT22;3458;53.678;14.080;2023-01-19T08:26:28;-2.10;99.90
6841;DHT22;3458;53.678;14.080;2023-01-19T08:28:56;-2.10;99.90
6841;DHT22;3458;53.678;14.080;2023-01-19T08:31:22;-2.00;99.90
6841;DHT22;3458;53.678;14.080;2023-01-19T08:33:48;-2.00;99.90
6841;DHT22;3458;53.678;14.080;2023-01-19T08:36:15;-2.00;99.90
6841;DHT22;3458;53.678;14.080;2023-01-19T08:38:40;-1.90;99.90
6841;DHT22;3458;53.678;14.080;2023-01-19T08:41:09;-1.90;99.90
6841;DHT22;3458;53.678;14.080;2023-01-19T08:43:35;-1.80;99.90
6841;DHT22;3458;53.678;14.080;2023-01-19T08:46:02;-1.80;99.90
6841;DHT22;3458;53.678;14.080;2023-01-19T08:48:28;-1.70;99.90
6841;DHT22;3458;53.678;14.080;2023-01-19T08:50:53;-1.70;99.90
6841;DHT22;3458;53.678;14.080;2023-01-19T08:53:19;-1.60;99.90
6841;DHT22;3458;53.678;14.080;2023-01-19T08:55:47;-1.50;99.90
6841;DHT22;3458;53.678;14.080;2023-01-19T08:58:12;-1.40;99.90
6841;DHT22;3458;53.678;14.080;2023-01-19T09:00:38;-1.40;99.90
6841;DHT22;3458;53.678;14.080;2023-01-19T09:03:06;-1.30;99.90
6841;DHT22;3458;53.678;14.080;2023-01-19T09:05:33;-1.20;99.90
6841;DHT22;3458;53.678;14.080;2023-01-19T09:08:13;-1.10;99.90
6841;DHT22;3458;53.678;14.080;2023-01-19T09:10:47;-1.00;99.90
6841;DHT22;3458;53.678;14.080;2023-01-19T09:13:14;-0.90;99.90
6841;DHT22;3458;53.678;14.080;2023-01-19T09:15:41;-0.80;99.90
6841;DHT22;3458;53.678;14.080;2023-01-19T09:18:11;-0.80;99.90
6841;DHT22;3458;53.678;14.080;2023-01-19T09:20:41;-0.80;99.90
6841;DHT22;3458;53.678;14.080;2023-01-19T09:23:12;-0.80;99.90
6841;DHT22;3458;53.678;14.080;2023-01-19T09:25:39;-0.80;99.90
6841;DHT22;3458;53.678;14.080;2023-01-19T09:28:06;-0.60;99.90
6841;DHT22;3458;53.678;14.080;2023-01-19T09:30:32;-0.50;99.90
6841;DHT22;3458;53.678;14.080;2023-01-19T09:33:05;-0.40;99.90
6841;DHT22;3458;53.678;14.080;2023-01-19T09:35:32;-0.30;99.90
6841;DHT22;3458;53.678;14.080;2023-01-19T09:37:58;-0.20;99.90
6841;DHT22;3458;53.678;14.080;2023-01-19T09:40:24;-0.10;99.90
6841;DHT22;3458;53.678;14.080;2023-01-19T09:46:28;0.10;99.90
6841;DHT22;3458;53.678;14.080;2023-01-19T09:48:45;0.10;99.90
6841;DHT22;3458;53.678;14.080;2023-01-19T09:51:17;0.30;99.90
6841;DHT22;3458;53.678;14.080;2023-01-19T09:56:28;0.50;99.90
6841;DHT22;3458;53.678;14.080;2023-01-19T09:58:54;0.60;99.90
6841;DHT22;3458;53.678;14.080;2023-01-19T10:06:43;0.80;99.90
6841;DHT22;3458;53.678;14.080;2023-01-19T10:09:22;0.90;99.90
6841;DHT22;3458;53.678;14.080;2023-01-19T10:11:56;0.90;99.90
6841;DHT22;3458;53.678;14.080;2023-01-19T10:14:48;1.00;99.90
6841;DHT22;3458;53.678;14.080;2023-01-19T10:19:50;1.10;99.90
6841;DHT22;3458;53.678;14.080;2023-01-19T10:22:22;1.10;99.90
6841;DHT22;3458;53.678;14.080;2023-01-19T10:24:51;1.10;99.90
6841;DHT22;3458;53.678;14.080;2023-01-19T10:27:21;1.10;99.90
6841;DHT22;3458;53.678;14.080;2023-01-19T10:29:48;1.10;99.90
6841;DHT22;3458;53.678;14.080;2023-01-19T10:32:25;1.10;99.90
6841;DHT22;3458;53.678;14.080;2023-01-19T10:34:52;1.20;99.90
6841;DHT22;3458;53.678;14.080;2023-01-19T10:42:38;1.30;99.90
6841;DHT22;3458;53.678;14.080;2023-01-19T10:45:20;1.30;99.90
6841;DHT22;3458;53.678;14.080;2023-01-19T10:47:47;1.30;99.90
6841;DHT22;3458;53.678;14.080;2023-01-19T10:50:32;1.30;99.90
6841;DHT22;3458;53.678;14.080;2023-01-19T10:53:02;1.30;99.90
6841;DHT22;3458;53.678;14.080;2023-01-19T10:55:31;1.30;99.90
6841;DHT22;3458;53.678;14.080;2023-01-19T10:57:58;1.30;99.90
6841;DHT22;3458;53.678;14.080;2023-01-19T11:00:32;1.30;99.90
6841;DHT22;3458;53.678;14.080;2023-01-19T11:02:58;1.30;99.90
6841;DHT22;3458;53.678;14.080;2023-01-19T11:05:30;1.40;99.90
6841;DHT22;3458;53.678;14.080;2023-01-19T11:07:56;1.50;99.90
6841;DHT22;3458;53.678;14.080;2023-01-19T11:10:29;1.60;99.90
6841;DHT22;3458;53.678;14.080;2023-01-19T11:13:12;1.70;99.90
6841;DHT22;3458;53.678;14.080;2023-01-19T11:15:57;1.70;99.90
6841;DHT22;3458;53.678;14.080;2023-01-19T11:18:31;1.70;99.90
6841;DHT22;3458;53.678;14.080;2023-01-19T11:21:11;1.70;99.90
6841;DHT22;3458;53.678;14.080;2023-01-19T11:23:40;1.70;99.90
6841;DHT22;3458;53.678;14.080;2023-01-19T11:26:14;1.70;99.90
6841;DHT22;3458;53.678;14.080;2023-01-19T11:28:44;1.70;99.90
6841;DHT22;3458;53.678;14.080;2023-01-19T11:33:47;1.70;99.90
6841;DHT22;3458;53.678;14.080;2023-01-19T11:38:44;1.80;99.90
6841;DHT22;3458;53.678;14.080;2023-01-19T11:41:25;1.80;99.90
6841;DHT22;3458;53.678;14.080;2023-01-19T11:43:54;1.80;99.90
6841;DHT22;3458;53.678;14.080;2023-01-19T11:46:23;1.80;99.90
6841;DHT22;3458;53.678;14.080;2023-01-19T11:48:55;1.80;99.90
6841;DHT22;3458;53.678;14.080;2023-01-19T11:51:31;1.90;99.90
6841;DHT22;3458;53.678;14.080;2023-01-19T11:53:59;1.90;99.90
6841;DHT22;3458;53.678;14.080;2023-01-19T11:56:28;1.80;99.90
6841;DHT22;3458;53.678;14.080;2023-01-19T11:58:54;1.80;99.90
6841;DHT22;3458;53.678;14.080;2023-01-19T12:01:23;1.80;99.90
6841;DHT22;3458;53.678;14.080;2023-01-19T12:04:06;1.80;99.90
6841;DHT22;3458;53.678;14.080;2023-01-19T12:06:38;1.80;99.90
6841;DHT22;3458;53.678;14.080;2023-01-19T12:09:11;1.80;99.90
6841;DHT22;3458;53.678;14.080;2023-01-19T12:11:48;1.80;99.90
6841;DHT22;3458;53.678;14.080;2023-01-19T12:17:12;1.70;99.90
6841;DHT22;3458;53.678;14.080;2023-01-19T12:19:56;1.60;99.90
6841;DHT22;3458;53.678;14.080;2023-01-19T12:22:23;1.60;99.90
6841;DHT22;3458;53.678;14.080;2023-01-19T12:27:42;1.60;99.90
6841;DHT22;3458;53.678;14.080;2023-01-19T12:30:22;1.60;99.90
6841;DHT22;3458;53.678;14.080;2023-01-19T12:32:49;1.60;99.90
6841;DHT22;3458;53.678;14.080;2023-01-19T12:38:44;1.50;99.90
6841;DHT22;3458;53.678;14.080;2023-01-19T12:41:33;1.60;99.90
6841;DHT22;3458;53.678;14.080;2023-01-19T12:46:57;1.60;99.90
6841;DHT22;3458;53.678;14.080;2023-01-19T12:49:42;1.60;99.90
6841;DHT22;3458;53.678;14.080;2023-01-19T12:55:19;1.50;99.90
6841;DHT22;3458;53.678;14.080;2023-01-19T12:57:55;1.60;99.90
6841;DHT22;3458;53.678;14.080;2023-01-19T13:02:54;1.70;99.90
6841;DHT22;3458;53.678;14.080;2023-01-19T13:13:34;1.80;99.90
6841;DHT22;3458;53.678;14.080;2023-01-19T13:18:57;1.90;99.90
6841;DHT22;3458;53.678;14.080;2023-01-19T13:21:26;2.00;99.90
6841;DHT22;3458;53.678;14.080;2023-01-19T13:23:56;2.00;99.90
6841;DHT22;3458;53.678;14.080;2023-01-19T13:26:32;2.10;99.90
6841;DHT22;3458;53.678;14.080;2023-01-19T13:29:14;2.20;99.90
6841;DHT22;3458;53.678;14.080;2023-01-19T13:31:42;2.40;99.90
6841;DHT22;3458;53.678;14.080;2023-01-19T13:34:12;2.60;99.90
6841;DHT22;3458;53.678;14.080;2023-01-19T13:36:42;2.70;99.90
6841;DHT22;3458;53.678;14.080;2023-01-19T13:41:48;3.00;99.90
6841;DHT22;3458;53.678;14.080;2023-01-19T13:44:20;3.20;99.90
6841;DHT22;3458;53.678;14.080;2023-01-19T13:46:49;3.40;99.90
6841;DHT22;3458;53.678;14.080;2023-01-19T13:49:25;3.60;99.90
6841;DHT22;3458;53.678;14.080;2023-01-19T13:54:46;4.40;99.90
6841;DHT22;3458;53.678;14.080;2023-01-19T13:57:27;4.50;99.90
6841;DHT22;3458;53.678;14.080;2023-01-19T14:05:27;4.80;99.90
6841;DHT22;3458;53.678;14.080;2023-01-19T14:13:33;5.00;99.90
6841;DHT22;3458;53.678;14.080;2023-01-19T14:16:04;4.70;99.90
6841;DHT22;3458;53.678;14.080;2023-01-19T14:18:34;4.80;99.90
6841;DHT22;3458;53.678;14.080;2023-01-19T14:21:08;4.50;99.90
6841;DHT22;3458;53.678;14.080;2023-01-19T14:29:18;3.60;99.90
6841;DHT22;3458;53.678;14.080;2023-01-19T14:31:48;3.50;99.90
6841;DHT22;3458;53.678;14.080;2023-01-19T14:34:30;3.40;99.90
6841;DHT22;3458;53.678;14.080;2023-01-19T14:36:55;3.20;99.90
6841;DHT22;3458;53.678;14.080;2023-01-19T14:39:25;3.00;99.90
6841;DHT22;3458;53.678;14.080;2023-01-19T14:41:51;2.60;99.90
6841;DHT22;3458;53.678;14.080;2023-01-19T14:44:28;2.30;99.90
6841;DHT22;3458;53.678;14.080;2023-01-19T14:46:55;2.10;99.90
6841;DHT22;3458;53.678;14.080;2023-01-19T14:49:39;1.90;99.90
6841;DHT22;3458;53.678;14.080;2023-01-19T14:52:17;1.70;99.90
6841;DHT22;3458;53.678;14.080;2023-01-19T14:54:45;1.50;99.90
6841;DHT22;3458;53.678;14.080;2023-01-19T14:57:12;1.40;99.90
6841;DHT22;3458;53.678;14.080;2023-01-19T14:59:39;1.30;99.90
6841;DHT22;3458;53.678;14.080;2023-01-19T15:02:05;1.20;99.90
6841;DHT22;3458;53.678;14.080;2023-01-19T15:04:30;1.10;99.90
6841;DHT22;3458;53.678;14.080;2023-01-19T15:06:56;1.10;99.90
6841;DHT22;3458;53.678;14.080;2023-01-19T15:09:22;1.00;99.90
6841;DHT22;3458;53.678;14.080;2023-01-19T15:11:49;1.00;99.90
6841;DHT22;3458;53.678;14.080;2023-01-19T15:14:16;0.90;99.90
6841;DHT22;3458;53.678;14.080;2023-01-19T15:16:43;0.90;99.90
6841;DHT22;3458;53.678;14.080;2023-01-19T15:19:13;0.90;99.90
6841;DHT22;3458;53.678;14.080;2023-01-19T15:21:39;0.90;99.90
6841;DHT22;3458;53.678;14.080;2023-01-19T15:24:07;0.80;99.90
6841;DHT22;3458;53.678;14.080;2023-01-19T15:26:35;0.80;99.90
6841;DHT22;3458;53.678;14.080;2023-01-19T15:29:01;0.70;99.90
6841;DHT22;3458;53.678;14.080;2023-01-19T15:31:27;0.70;99.90
6841;DHT22;3458;53.678;14.080;2023-01-19T15:33:52;0.70;99.90
6841;DHT22;3458;53.678;14.080;2023-01-19T15:36:19;0.70;99.90
6841;DHT22;3458;53.678;14.080;2023-01-19T15:38:46;0.70;99.90
6841;DHT22;3458;53.678;14.080;2023-01-19T15:41:13;0.70;99.90
6841;DHT22;3458;53.678;14.080;2023-01-19T15:43:39;0.70;99.90
6841;DHT22;3458;53.678;14.080;2023-01-19T15:46:05;0.60;99.90
6841;DHT22;3458;53.678;14.080;2023-01-19T15:48:31;0.60;99.90
6841;DHT22;3458;53.678;14.080;2023-01-19T15:50:56;0.60;99.90
6841;DHT22;3458;53.678;14.080;2023-01-19T15:53:22;0.60;99.90
6841;DHT22;3458;53.678;14.080;2023-01-19T15:55:50;0.60;99.90
6841;DHT22;3458;53.678;14.080;2023-01-19T15:58:16;0.60;99.90
6841;DHT22;3458;53.678;14.080;2023-01-19T16:00:42;0.60;99.90
6841;DHT22;3458;53.678;14.080;2023-01-19T16:03:09;0.60;99.90
6841;DHT22;3458;53.678;14.080;2023-01-19T16:05:34;0.60;99.90
6841;DHT22;3458;53.678;14.080;2023-01-19T16:08:00;0.60;99.90
6841;DHT22;3458;53.678;14.080;2023-01-19T16:10:25;0.60;99.90
6841;DHT22;3458;53.678;14.080;2023-01-19T16:12:51;0.50;99.90
6841;DHT22;3458;53.678;14.080;2023-01-19T16:15:17;0.50;99.90
6841;DHT22;3458;53.678;14.080;2023-01-19T16:17:43;0.60;99.90
6841;DHT22;3458;53.678;14.080;2023-01-19T16:20:09;0.50;99.90
6841;DHT22;3458;53.678;14.080;2023-01-19T16:22:36;0.50;99.90
6841;DHT22;3458;53.678;14.080;2023-01-19T16:25:02;0.50;99.90
6841;DHT22;3458;53.678;14.080;2023-01-19T16:27:28;0.50;99.90
6841;DHT22;3458;53.678;14.080;2023-01-19T16:29:53;0.50;99.90
6841;DHT22;3458;53.678;14.080;2023-01-19T16:32:19;0.40;99.90
6841;DHT22;3458;53.678;14.080;2023-01-19T16:34:44;0.40;99.90
6841;DHT22;3458;53.678;14.080;2023-01-19T16:37:10;0.40;99.90
6841;DHT22;3458;53.678;14.080;2023-01-19T16:39:36;0.40;99.90
6841;DHT22;3458;53.678;14.080;2023-01-19T16:42:01;0.40;99.90
6841;DHT22;3458;53.678;14.080;2023-01-19T16:44:27;0.40;99.90
6841;DHT22;3458;53.678;14.080;2023-01-19T16:46:53;0.40;99.90
6841;DHT22;3458;53.678;14.080;2023-01-19T16:49:23;0.40;99.90
6841;DHT22;3458;53.678;14.080;2023-01-19T16:51:50;0.40;99.90
6841;DHT22;3458;53.678;14.080;2023-01-19T16:54:19;0.40;99.90
6841;DHT22;3458;53.678;14.080;2023-01-19T16:56:45;0.30;99.90
6841;DHT22;3458;53.678;14.080;2023-01-19T16:59:12;0.30;99.90
6841;DHT22;3458;53.678;14.080;2023-01-19T17:01:38;0.40;99.90
6841;DHT22;3458;53.678;14.080;2023-01-19T17:04:04;0.30;99.90
6841;DHT22;3458;53.678;14.080;2023-01-19T17:06:30;0.30;99.90
6841;DHT22;3458;53.678;14.080;2023-01-19T17:08:56;0.30;99.90
6841;DHT22;3458;53.678;14.080;2023-01-19T17:11:29;0.30;99.90
6841;DHT22;3458;53.678;14.080;2023-01-19T17:13:57;0.30;99.90
6841;DHT22;3458;53.678;14.080;2023-01-19T17:16:25;0.30;99.90
6841;DHT22;3458;53.678;14.080;2023-01-19T17:18:51;0.30;99.90
6841;DHT22;3458;53.678;14.080;2023-01-19T17:21:18;0.30;99.90
6841;DHT22;3458;53.678;14.080;2023-01-19T17:23:46;0.20;99.90